Terminal Aerodrome Forecast
Issued by NWS Buffalo, NY

Home | Current Version | Previous Version | Text Only | Print | Product List | Glossary On
Versions: 1 2 3 4 5 6 7 8 9 10 11 12 13 14 15 16 17 18 19 20 21 22 23 24
000
FTUS41 KBUF 240520
TAFBUF
TAF
KBUF 240520Z 2406/2506 18012KT P6SM -SHRA OVC035
     FM240800 20012KT P6SM BKN025
     FM241600 21012G18KT P6SM BKN035
     FM241900 21013G20KT P6SM SCT035
     FM242200 21013KT P6SM SCT035
     FM250100 21013KT P6SM FEW040=

USA.gov is the U.S. government's official web portal to all federal, state and local government web resources and services.